createdAt,value
2019-02-19T00:00:36.163Z,67.90
2019-02-19T00:03:38.463Z,67.90
2019-02-19T00:06:40.763Z,67.90
2019-02-19T00:09:43.215Z,68.20
2019-02-19T00:12:45.515Z,68.40
2019-02-19T00:15:47.789Z,68.30
2019-02-19T00:18:50.175Z,68.40
2019-02-19T00:21:52.448Z,68.60
2019-02-19T00:24:55.066Z,68.60
2019-02-19T00:27:57.295Z,68.60
2019-02-19T00:30:59.658Z,68.60
2019-02-19T00:34:02.368Z,68.70
2019-02-19T00:37:04.753Z,68.60
2019-02-19T00:40:08.205Z,68.70
2019-02-19T00:43:10.496Z,68.60
2019-02-19T00:46:12.856Z,68.60
2019-02-19T00:49:15.216Z,68.50
2019-02-19T00:52:17.547Z,68.60
2019-02-19T00:55:19.831Z,68.50
2019-02-19T00:58:23.133Z,68.50
2019-02-19T01:01:25.511Z,68.40
2019-02-19T01:04:27.779Z,68.30
2019-02-19T01:07:30.737Z,68.00
2019-02-19T01:10:33.054Z,68.10
2019-02-19T01:13:35.343Z,68.10
2019-02-19T01:16:38.097Z,68.10
2019-02-19T01:19:41.208Z,68.10
2019-02-19T01:22:44.432Z,68.10
2019-02-19T01:25:46.746Z,68.20
2019-02-19T01:28:49.925Z,68.20
2019-02-19T01:31:52.235Z,68.20
2019-02-19T01:34:54.548Z,68.40
2019-02-19T01:37:56.980Z,68.30
2019-02-19T01:40:59.782Z,68.30
2019-02-19T01:44:02.568Z,68.60
2019-02-19T01:47:04.917Z,68.60
2019-02-19T01:50:07.553Z,68.90
2019-02-19T01:53:09.875Z,69.00
2019-02-19T01:56:12.809Z,69.00
2019-02-19T01:59:15.143Z,69.20
2019-02-19T02:02:17.429Z,69.30
2019-02-19T02:05:19.800Z,69.50
2019-02-19T02:08:22.170Z,69.70
2019-02-19T02:11:24.471Z,69.80
2019-02-19T02:14:26.775Z,70.20
2019-02-19T02:17:29.134Z,70.10
2019-02-19T02:20:31.450Z,70.40
2019-02-19T02:23:33.739Z,70.50
2019-02-19T02:26:36.643Z,71.20
2019-02-19T02:29:38.956Z,71.20
2019-02-19T02:32:41.238Z,71.60
2019-02-19T02:35:43.521Z,71.70
2019-02-19T02:38:45.807Z,71.90
2019-02-19T02:41:48.118Z,72.00
2019-02-19T02:44:50.418Z,71.80
2019-02-19T02:47:52.702Z,72.20
2019-02-19T02:50:55.032Z,72.20
2019-02-19T02:53:57.609Z,72.60
2019-02-19T02:56:59.924Z,72.80
2019-02-19T03:00:02.279Z,73.10
2019-02-19T03:03:04.918Z,73.30
2019-02-19T03:06:12.670Z,73.30
2019-02-19T03:09:14.967Z,73.30
2019-02-19T03:12:17.256Z,73.30
2019-02-19T03:15:19.791Z,73.40
2019-02-19T03:18:22.682Z,73.70
2019-02-19T03:21:25.031Z,74.20
2019-02-19T03:24:27.303Z,74.30
2019-02-19T03:27:29.581Z,74.40
2019-02-19T03:30:31.899Z,74.40
2019-02-19T03:33:34.180Z,74.90
2019-02-19T03:36:36.445Z,75.10
2019-02-19T03:39:38.715Z,75.80
2019-02-19T03:42:41.831Z,76.00
2019-02-19T03:45:44.069Z,76.00
2019-02-19T03:48:46.376Z,76.20
2019-02-19T03:51:49.430Z,76.20
2019-02-19T03:54:51.970Z,76.60
2019-02-19T03:57:54.364Z,76.90
2019-02-19T04:00:56.799Z,77.00
2019-02-19T04:03:59.064Z,77.30
2019-02-19T04:07:01.420Z,77.40
2019-02-19T04:10:04.648Z,77.50
2019-02-19T04:13:07.013Z,78.10
2019-02-19T04:16:09.309Z,78.40
2019-02-19T04:19:11.844Z,79.50
2019-02-19T04:22:14.207Z,78.90
2019-02-19T04:25:16.529Z,79.20
2019-02-19T04:28:18.809Z,79.40
2019-02-19T04:31:21.348Z,79.20
2019-02-19T04:34:23.647Z,79.30
2019-02-19T04:37:25.943Z,79.40
2019-02-19T04:40:28.213Z,79.50
2019-02-19T04:43:30.843Z,79.70
2019-02-19T04:46:33.191Z,79.70
2019-02-19T04:49:36.410Z,79.70
2019-02-19T04:52:39.364Z,80.00
2019-02-19T04:55:41.675Z,80.00
2019-02-19T04:58:43.956Z,80.00
2019-02-19T05:01:46.267Z,79.90
2019-02-19T05:04:48.605Z,79.90
2019-02-19T05:07:50.981Z,80.30
2019-02-19T05:10:53.597Z,80.00
2019-02-19T05:13:55.972Z,80.40
2019-02-19T05:16:58.251Z,80.50
2019-02-19T05:20:00.526Z,80.80
2019-02-19T05:23:03.068Z,81.30
2019-02-19T05:26:05.407Z,81.50
2019-02-19T05:29:07.732Z,81.50
2019-02-19T05:32:11.003Z,81.70
2019-02-19T05:35:13.278Z,81.70
2019-02-19T05:38:15.579Z,81.20
2019-02-19T05:41:18.198Z,81.10
2019-02-19T05:44:20.477Z,81.10
2019-02-19T05:47:23.094Z,81.40
2019-02-19T05:50:26.048Z,81.40
2019-02-19T05:53:28.895Z,81.70
2019-02-19T05:56:31.212Z,81.70
2019-02-19T05:59:33.659Z,81.50
2019-02-19T06:02:36.555Z,81.50
2019-02-19T06:05:38.829Z,81.70
2019-02-19T06:08:41.234Z,81.40
2019-02-19T06:11:43.600Z,81.60
2019-02-19T06:14:45.879Z,82.10
2019-02-19T06:17:48.250Z,81.90
2019-02-19T06:20:50.627Z,81.90
2019-02-19T06:23:53.556Z,82.70
2019-02-19T06:26:55.820Z,82.90
2019-02-19T06:29:58.595Z,83.40
2019-02-19T06:33:00.922Z,84.20
2019-02-19T06:36:03.319Z,84.50
2019-02-19T06:39:05.642Z,84.50
2019-02-19T06:42:07.971Z,84.50
2019-02-19T06:45:10.331Z,84.30
2019-02-19T06:48:12.721Z,85.00
2019-02-19T06:51:15.065Z,85.70
2019-02-19T06:54:17.399Z,85.80
2019-02-19T06:57:20.651Z,86.40
2019-02-19T07:00:23.443Z,87.10
2019-02-19T07:03:30.944Z,87.60
2019-02-19T07:06:33.251Z,88.20
2019-02-19T07:09:35.493Z,88.70
2019-02-19T07:12:38.343Z,90.10
2019-02-19T07:15:40.688Z,89.80
2019-02-19T07:18:43.035Z,89.20
2019-02-19T07:21:45.298Z,90.00
2019-02-19T07:24:47.572Z,90.10
2019-02-19T07:27:49.958Z,90.30
2019-02-19T07:30:52.340Z,90.30
2019-02-19T07:33:54.687Z,90.10
2019-02-19T07:36:57.870Z,89.10
2019-02-19T07:40:00.788Z,88.60
2019-02-19T07:43:03.197Z,89.00
2019-02-19T07:46:05.811Z,88.30
2019-02-19T07:49:08.079Z,88.20
2019-02-19T07:52:10.393Z,87.90
2019-02-19T07:55:12.755Z,87.00
2019-02-19T07:58:15.713Z,86.30
2019-02-19T08:01:18.031Z,85.30
2019-02-19T08:04:21.196Z,84.70
2019-02-19T08:07:23.507Z,83.50
2019-02-19T08:10:26.364Z,82.80
2019-02-19T08:13:29.037Z,82.60
2019-02-19T08:16:31.805Z,81.70
2019-02-19T08:19:34.177Z,81.10
2019-02-19T08:22:36.588Z,80.80
2019-02-19T08:25:38.871Z,80.20
2019-02-19T08:28:42.064Z,79.60
2019-02-19T08:31:44.374Z,79.30
2019-02-19T08:34:46.716Z,78.60
2019-02-19T08:37:49.025Z,78.10
2019-02-19T08:40:51.395Z,77.70
2019-02-19T08:43:53.731Z,76.60
2019-02-19T08:46:56.107Z,75.20
2019-02-19T08:49:58.432Z,75.20
2019-02-19T08:53:00.859Z,74.60
2019-02-19T08:56:03.216Z,74.20
2019-02-19T08:59:05.533Z,73.50
2019-02-19T09:02:07.855Z,71.90
2019-02-19T09:05:10.095Z,71.80
2019-02-19T09:08:12.393Z,71.60
2019-02-19T09:11:14.771Z,71.50
2019-02-19T09:14:17.143Z,70.80
2019-02-19T09:17:19.451Z,70.30
2019-02-19T09:20:21.899Z,69.40
2019-02-19T09:23:24.529Z,69.00
2019-02-19T09:26:26.879Z,68.70
2019-02-19T09:29:29.165Z,68.10
2019-02-19T09:32:31.505Z,67.70
2019-02-19T09:35:33.817Z,67.60
2019-02-19T09:38:36.107Z,66.70
2019-02-19T09:41:38.427Z,66.60
2019-02-19T09:44:40.944Z,66.20
2019-02-19T09:47:43.319Z,66.60
2019-02-19T09:50:45.912Z,66.10
2019-02-19T09:53:48.189Z,65.90
2019-02-19T09:56:50.499Z,65.60
2019-02-19T09:59:52.826Z,65.00
2019-02-19T10:02:55.215Z,64.90
2019-02-19T10:05:58.133Z,63.90
2019-02-19T10:09:00.383Z,64.00
2019-02-19T10:12:02.781Z,63.60
2019-02-19T10:15:06.233Z,62.70
2019-02-19T10:18:10.535Z,62.60
2019-02-19T10:21:11.113Z,62.70
2019-02-19T10:24:13.401Z,62.00
2019-02-19T10:27:15.712Z,62.00
2019-02-19T10:30:18.073Z,61.80
2019-02-19T10:33:20.403Z,62.00
2019-02-19T10:36:23.300Z,61.70
2019-02-19T10:39:25.681Z,61.90
2019-02-19T10:42:28.048Z,61.80
2019-02-19T10:45:30.399Z,61.50
2019-02-19T10:48:32.801Z,61.20
2019-02-19T10:51:36.068Z,61.40
2019-02-19T10:54:38.585Z,61.00
2019-02-19T10:57:41.288Z,59.40
2019-02-19T11:00:43.562Z,59.40
2019-02-19T11:03:45.915Z,59.10
2019-02-19T11:06:48.271Z,58.90
2019-02-19T11:09:50.622Z,58.50
2019-02-19T11:12:52.927Z,58.30
2019-02-19T11:15:55.385Z,57.80
2019-02-19T11:18:57.675Z,57.50
2019-02-19T11:21:59.969Z,57.40
2019-02-19T11:25:02.327Z,57.10
2019-02-19T11:28:04.774Z,57.60
2019-02-19T11:31:07.120Z,57.30
2019-02-19T11:34:09.461Z,57.60
2019-02-19T11:37:11.808Z,57.50
2019-02-19T11:40:14.159Z,61.50
2019-02-19T11:43:16.487Z,59.40
2019-02-19T11:46:18.909Z,57.80
2019-02-19T11:49:21.259Z,56.90
2019-02-19T11:52:23.820Z,56.20
2019-02-19T11:55:26.148Z,56.00
2019-02-19T11:58:28.495Z,56.40
2019-02-19T12:01:30.800Z,56.00
2019-02-19T12:04:33.063Z,56.10
2019-02-19T12:07:35.331Z,56.50
2019-02-19T12:10:37.634Z,57.10
2019-02-19T12:13:39.977Z,56.80
2019-02-19T12:16:42.443Z,57.10
2019-02-19T12:25:03.380Z,57.00
2019-02-19T12:28:05.769Z,57.10
2019-02-19T12:31:08.061Z,56.60
2019-02-19T12:34:10.419Z,56.60
2019-02-19T12:37:12.806Z,56.50
2019-02-19T12:40:15.143Z,56.80
2019-02-19T12:43:17.487Z,56.30
2019-02-19T12:46:19.862Z,56.90
2019-02-19T12:49:22.226Z,56.60
2019-02-19T12:52:24.549Z,57.00
2019-02-19T12:55:26.876Z,56.10
2019-02-19T12:58:29.291Z,56.10
2019-02-19T13:01:31.835Z,55.90
2019-02-19T13:04:34.173Z,56.00
2019-02-19T13:07:36.975Z,56.20
2019-02-19T13:10:38.855Z,56.10
2019-02-19T13:13:41.126Z,56.10
2019-02-19T13:16:43.375Z,55.90
2019-02-19T13:19:45.694Z,56.20
2019-02-19T13:22:48.084Z,56.40
2019-02-19T13:25:51.135Z,56.60
2019-02-19T13:28:54.563Z,55.80
2019-02-19T13:31:56.915Z,54.90
2019-02-19T13:34:59.171Z,54.50
2019-02-19T13:38:01.702Z,54.60
2019-02-19T13:41:04.031Z,55.00
2019-02-19T13:44:06.315Z,54.30
2019-02-19T13:47:08.655Z,54.50
2019-02-19T13:50:13.819Z,54.60
2019-02-19T13:53:28.876Z,54.10
2019-02-19T13:56:31.184Z,53.60
2019-02-19T13:59:33.473Z,53.20
2019-02-19T14:02:35.901Z,53.70
2019-02-19T14:09:11.522Z,53.40
2019-02-19T14:12:13.843Z,53.20
2019-02-19T14:15:21.605Z,53.40
2019-02-19T14:18:30.287Z,53.70
2019-02-19T14:21:39.220Z,54.10
2019-02-19T14:26:50.039Z,54.30
2019-02-19T14:29:58.968Z,53.40
2019-02-19T14:33:11.643Z,53.30
2019-02-19T14:38:21.739Z,53.40
2019-02-19T14:41:46.665Z,54.00
2019-02-19T14:44:53.553Z,54.60
2019-02-19T14:50:04.546Z,54.70
2019-02-19T14:53:17.180Z,55.00
2019-02-19T14:56:25.016Z,55.30
2019-02-19T14:59:37.781Z,55.30
2019-02-19T15:02:45.651Z,55.30
2019-02-19T15:05:55.431Z,55.70
2019-02-19T15:11:06.354Z,55.70
2019-02-19T15:16:17.271Z,56.10
2019-02-19T15:19:25.119Z,56.30
2019-02-19T15:22:50.834Z,56.20
2019-02-19T15:26:18.751Z,56.70
2019-02-19T15:29:31.561Z,57.10
2019-02-19T15:32:39.326Z,57.40
2019-02-19T15:35:51.133Z,57.70
2019-02-19T15:39:02.931Z,57.90
2019-02-19T15:44:15.029Z,58.10
2019-02-19T15:47:27.705Z,58.40
2019-02-19T15:50:35.551Z,58.90
2019-02-19T15:53:43.389Z,59.40
2019-02-19T15:56:51.439Z,59.40
2019-02-19T15:59:58.286Z,59.70
2019-02-19T16:03:07.008Z,59.60
2019-02-19T16:06:15.848Z,59.80
2019-02-19T16:09:28.546Z,60.00
2019-02-19T16:15:53.635Z,60.20
2019-02-19T16:19:02.513Z,60.30
2019-02-19T16:22:40.264Z,60.40
2019-02-19T16:25:52.036Z,60.80
2019-02-19T16:29:10.735Z,60.90
2019-02-19T16:33:16.635Z,61.10
2019-02-19T16:36:26.378Z,61.30
2019-02-19T16:39:40.346Z,61.60
2019-02-19T16:42:51.959Z,61.70
2019-02-19T16:47:27.424Z,61.70
2019-02-19T16:50:37.180Z,61.90
2019-02-19T16:53:45.809Z,62.00
2019-02-19T16:56:57.620Z,62.20
2019-02-19T17:00:04.532Z,62.60
2019-02-19T17:03:29.210Z,62.70
2019-02-19T17:07:38.904Z,62.90
2019-02-19T17:12:47.954Z,63.10
2019-02-19T17:15:55.649Z,63.40
2019-02-19T17:21:07.438Z,63.40
2019-02-19T17:24:19.260Z,63.80
2019-02-19T17:27:26.091Z,63.90
2019-02-19T17:32:39.037Z,63.80
2019-02-19T17:35:47.063Z,64.00
2019-02-19T17:39:58.974Z,64.30
2019-02-19T17:45:08.255Z,64.40
2019-02-19T17:48:16.230Z,64.70
2019-02-19T17:51:24.232Z,65.20
2019-02-19T17:54:32.264Z,66.70
2019-02-19T17:57:49.892Z,66.90
2019-02-19T18:01:00.549Z,67.00
2019-02-19T18:04:10.983Z,67.00
2019-02-19T18:07:47.148Z,67.30
2019-02-19T18:12:00.044Z,67.30
2019-02-19T18:15:12.690Z,67.80
2019-02-19T18:18:25.454Z,67.90
2019-02-19T18:21:27.855Z,68.10
2019-02-19T18:24:30.208Z,68.40
2019-02-19T18:27:32.539Z,68.60
2019-02-19T18:30:34.840Z,68.80
2019-02-19T18:33:37.131Z,68.70
2019-02-19T18:36:39.845Z,69.00
2019-02-19T18:39:42.088Z,69.20
2019-02-19T18:42:44.381Z,69.40
2019-02-19T18:45:46.658Z,69.60
2019-02-19T18:48:48.947Z,69.70
2019-02-19T18:51:51.223Z,70.00
2019-02-19T18:54:53.524Z,70.20
2019-02-19T18:57:55.843Z,70.40
2019-02-19T19:00:58.149Z,70.80
2019-02-19T19:04:00.539Z,70.90
2019-02-19T19:07:02.816Z,71.30
2019-02-19T19:10:05.918Z,71.70
2019-02-19T19:13:08.228Z,71.90
2019-02-19T19:16:10.484Z,72.20
2019-02-19T19:19:12.815Z,72.60
2019-02-19T19:22:15.113Z,72.80
2019-02-19T19:25:17.400Z,73.00
2019-02-19T19:28:19.684Z,73.10
2019-02-19T19:31:22.003Z,73.50
2019-02-19T19:34:24.272Z,73.70
2019-02-19T19:37:26.607Z,74.40
2019-02-19T19:40:28.898Z,74.70
2019-02-19T19:43:31.177Z,75.20
2019-02-19T19:46:33.444Z,75.80
2019-02-19T19:49:35.775Z,76.10
2019-02-19T19:52:38.165Z,77.40
2019-02-19T19:55:40.519Z,78.20
2019-02-19T19:58:42.790Z,79.00
2019-02-19T20:01:45.059Z,80.60
2019-02-19T20:04:47.473Z,80.80
2019-02-19T20:07:49.765Z,81.70
2019-02-19T20:10:52.070Z,82.80
2019-02-19T20:13:54.427Z,85.30
2019-02-19T20:16:56.710Z,86.00
2019-02-19T20:19:59.099Z,86.80
2019-02-19T20:23:01.360Z,87.30
2019-02-19T20:26:03.725Z,87.80
2019-02-19T20:29:06.029Z,87.30
2019-02-19T20:32:08.299Z,87.10
2019-02-19T20:35:10.647Z,86.80
2019-02-19T20:38:12.943Z,86.70
2019-02-19T20:41:15.235Z,87.10
2019-02-19T20:44:17.575Z,87.60
2019-02-19T20:47:19.833Z,88.40
2019-02-19T20:50:22.184Z,90.00
2019-02-19T20:53:24.416Z,90.80
2019-02-19T20:56:26.692Z,91.30
2019-02-19T20:59:28.983Z,91.30
2019-02-19T21:02:31.603Z,92.00
2019-02-19T21:05:33.928Z,93.40
2019-02-19T21:08:36.322Z,92.90
2019-02-19T21:11:38.631Z,92.20
2019-02-19T21:14:40.912Z,93.10
2019-02-19T21:17:43.237Z,93.20
2019-02-19T21:20:45.513Z,92.70
2019-02-19T21:23:47.763Z,92.90
2019-02-19T21:26:50.110Z,92.90
2019-02-19T21:29:52.932Z,92.90
2019-02-19T21:32:55.296Z,93.80
2019-02-19T21:35:58.034Z,93.40
2019-02-19T21:38:59.889Z,93.50
2019-02-19T21:42:02.272Z,93.50
2019-02-19T21:45:04.873Z,93.10
2019-02-19T21:48:07.174Z,93.00
2019-02-19T21:51:09.482Z,92.90
2019-02-19T21:54:11.821Z,94.50
2019-02-19T21:57:14.229Z,93.50
2019-02-19T22:00:17.049Z,92.70
2019-02-19T22:03:19.436Z,92.60
2019-02-19T22:06:21.718Z,93.00
2019-02-19T22:09:24.055Z,94.20
2019-02-19T22:12:26.341Z,94.90
2019-02-19T22:15:28.619Z,93.40
2019-02-19T22:18:30.987Z,93.10
2019-02-19T22:21:38.473Z,93.10
2019-02-19T22:24:40.739Z,93.40
2019-02-19T22:27:43.115Z,95.00
2019-02-19T22:30:46.288Z,95.80
2019-02-19T22:33:51.047Z,96.20
2019-02-19T22:36:53.359Z,96.40
2019-02-19T22:39:55.672Z,96.30
2019-02-19T22:42:57.972Z,95.70
2019-02-19T22:46:00.205Z,95.10
2019-02-19T22:49:02.549Z,95.00
2019-02-19T22:52:12.339Z,95.80
2019-02-19T22:55:12.764Z,96.60
2019-02-19T22:58:15.060Z,96.70
2019-02-19T23:01:24.084Z,96.50
2019-02-19T23:04:26.374Z,96.40
2019-02-19T23:07:28.591Z,96.10
2019-02-19T23:10:30.873Z,96.10
2019-02-19T23:13:33.135Z,95.30
2019-02-19T23:16:35.493Z,95.80
2019-02-19T23:19:37.756Z,94.90
2019-02-19T23:22:39.985Z,95.20
2019-02-19T23:25:42.245Z,95.60
2019-02-19T23:28:44.597Z,94.60
2019-02-19T23:31:46.920Z,94.60
2019-02-19T23:34:53.775Z,95.40
2019-02-19T23:37:56.063Z,95.30
2019-02-19T23:40:58.343Z,94.50
2019-02-19T23:44:00.687Z,94.20
2019-02-19T23:47:02.947Z,94.00
2019-02-19T23:50:05.511Z,93.90
2019-02-19T23:53:07.799Z,94.20
2019-02-19T23:56:10.091Z,94.20
2019-02-19T23:59:12.310Z,94.20
